createdAt,value
2019-05-05T00:03:15.927Z,3.67
2019-05-05T00:08:10.895Z,3.87
2019-05-05T00:13:19.009Z,3.83
2019-05-05T00:18:14.841Z,3.73
2019-05-05T00:23:09.857Z,3.73
2019-05-05T00:28:05.075Z,3.60
2019-05-05T00:32:59.691Z,3.93
2019-05-05T00:37:54.557Z,4.10
2019-05-05T00:42:49.187Z,4.20
2019-05-05T00:47:45.976Z,3.50
2019-05-05T00:52:40.558Z,3.47
2019-05-05T00:57:35.136Z,3.33
2019-05-05T01:02:34.430Z,3.27
2019-05-05T01:07:29.151Z,3.40
2019-05-05T01:12:24.448Z,3.17
2019-05-05T01:17:19.406Z,3.40
2019-05-05T01:22:14.511Z,3.10
2019-05-05T01:27:09.453Z,3.50
2019-05-05T01:32:05.745Z,3.77
2019-05-05T01:37:02.495Z,3.70
2019-05-05T01:41:58.719Z,4.30
2019-05-05T01:46:55.081Z,4.23
2019-05-05T01:51:49.657Z,4.47
2019-05-05T01:56:45.355Z,5.10
2019-05-05T02:01:40.165Z,5.47
2019-05-05T02:06:35.176Z,4.70
2019-05-05T02:11:30.181Z,5.33
2019-05-05T02:16:25.466Z,5.93
2019-05-05T02:21:20.416Z,5.53
2019-05-05T02:26:15.420Z,5.10
2019-05-05T02:31:16.654Z,5.80
2019-05-05T02:36:11.232Z,6.20
2019-05-05T02:41:05.968Z,5.93
2019-05-05T02:46:15.794Z,5.90
2019-05-05T02:51:15.210Z,6.30
2019-05-05T02:56:14.612Z,5.77
2019-05-05T03:01:14.010Z,6.33
2019-05-05T03:06:08.805Z,5.80
2019-05-05T03:11:04.785Z,5.80
2019-05-05T03:16:21.035Z,6.40
2019-05-05T03:21:19.409Z,6.07
2019-05-05T03:26:16.007Z,6.50
2019-05-05T03:31:15.566Z,6.53
2019-05-05T03:36:08.859Z,6.83
2019-05-05T03:41:05.351Z,6.63
2019-05-05T03:46:04.297Z,6.60
2019-05-05T03:50:59.144Z,6.43
2019-05-05T03:55:55.075Z,6.80
2019-05-05T04:01:34.622Z,6.63
2019-05-05T04:06:38.523Z,7.00
2019-05-05T04:11:33.825Z,7.33
2019-05-05T04:16:30.099Z,7.03
2019-05-05T04:21:33.546Z,7.03
2019-05-05T04:26:21.060Z,7.30
2019-05-05T04:31:15.645Z,7.23
2019-05-05T04:36:10.242Z,7.57
2019-05-05T04:41:04.841Z,7.80
2019-05-05T04:45:59.406Z,7.17
2019-05-05T04:50:58.263Z,7.53
2019-05-05T04:55:53.612Z,7.83
2019-05-05T05:00:48.480Z,8.03
2019-05-05T05:05:53.948Z,7.70
2019-05-05T05:10:48.522Z,8.03
2019-05-05T05:15:44.610Z,8.63
2019-05-05T05:20:39.569Z,7.93
2019-05-05T05:25:34.743Z,8.33
2019-05-05T05:30:29.333Z,8.40
2019-05-05T05:35:24.524Z,7.90
2019-05-05T05:40:20.901Z,8.47
2019-05-05T05:45:17.442Z,8.50
2019-05-05T05:50:14.327Z,8.27
2019-05-05T05:55:09.165Z,8.67
2019-05-05T06:00:05.721Z,8.63
2019-05-05T06:05:00.301Z,8.67
2019-05-05T06:09:54.879Z,8.57
2019-05-05T06:14:49.464Z,9.00
2019-05-05T06:19:44.565Z,8.83
2019-05-05T06:24:39.436Z,8.23
2019-05-05T06:29:34.507Z,8.50
2019-05-05T06:34:29.285Z,7.70
2019-05-05T06:39:24.247Z,7.80
2019-05-05T06:44:18.818Z,8.00
2019-05-05T06:49:13.754Z,7.73
2019-05-05T06:54:08.501Z,8.10
2019-05-05T06:59:04.413Z,7.67
2019-05-05T07:03:59.293Z,8.33
2019-05-05T07:08:54.587Z,7.50
2019-05-05T07:13:49.541Z,8.33
2019-05-05T07:18:44.710Z,7.53
2019-05-05T07:23:39.463Z,7.43
2019-05-05T07:28:34.393Z,7.73
2019-05-05T07:33:29.216Z,8.67
2019-05-05T07:38:24.402Z,7.57
2019-05-05T07:43:19.282Z,7.30
2019-05-05T07:48:14.011Z,8.60
2019-05-05T07:53:14.531Z,6.70
2019-05-05T07:58:05.099Z,6.53
2019-05-05T08:02:59.712Z,6.07
2019-05-05T08:07:54.277Z,5.10
2019-05-05T08:12:48.874Z,6.00
2019-05-05T08:17:59.858Z,5.57
2019-05-05T08:22:54.616Z,5.60
2019-05-05T08:27:59.663Z,4.80
2019-05-05T08:32:54.672Z,5.40
2019-05-05T08:37:49.312Z,5.77
2019-05-05T08:42:44.549Z,5.23
2019-05-05T08:47:39.348Z,4.37
2019-05-05T08:52:34.360Z,4.90
2019-05-05T08:57:29.264Z,4.70
2019-05-05T09:02:24.075Z,4.63
2019-05-05T09:07:18.699Z,4.87
2019-05-05T09:12:13.991Z,5.17
2019-05-05T09:17:08.853Z,4.57
2019-05-05T09:22:06.704Z,4.60
2019-05-05T09:27:03.483Z,3.60
2019-05-05T09:31:57.825Z,3.40
2019-05-05T09:36:54.304Z,3.80
2019-05-05T09:41:48.710Z,4.10
2019-05-05T09:46:44.616Z,3.77
2019-05-05T09:51:39.368Z,3.90
2019-05-05T09:56:53.906Z,3.93
2019-05-05T10:01:50.193Z,3.93
2019-05-05T10:06:47.781Z,3.87
2019-05-05T10:11:41.262Z,3.03
2019-05-05T10:16:36.080Z,3.40
2019-05-05T10:21:30.654Z,3.17
2019-05-05T10:26:25.326Z,3.23
2019-05-05T10:31:19.909Z,3.20
2019-05-05T10:36:14.507Z,2.70
2019-05-05T10:41:09.148Z,3.03
2019-05-05T10:46:03.970Z,3.00
2019-05-05T10:50:58.776Z,2.70
2019-05-05T10:55:53.975Z,2.10
2019-05-05T11:00:54.371Z,2.20
2019-05-05T11:05:49.101Z,2.70
2019-05-05T11:10:44.943Z,2.40
2019-05-05T11:15:40.207Z,2.10
2019-05-05T11:20:34.918Z,1.90
2019-05-05T11:25:29.518Z,2.13
2019-05-05T11:30:40.473Z,2.33
2019-05-05T11:35:49.810Z,2.40
2019-05-05T11:40:44.465Z,2.30
2019-05-05T11:45:39.058Z,1.87
2019-05-05T11:50:34.269Z,1.63
2019-05-05T11:55:29.140Z,1.70
2019-05-05T12:00:24.206Z,1.90
2019-05-05T12:05:18.901Z,1.73
2019-05-05T12:10:18.216Z,1.77
2019-05-05T12:15:13.436Z,1.73
2019-05-05T12:20:10.091Z,1.90
2019-05-05T12:25:07.177Z,1.90
2019-05-05T12:30:03.782Z,2.13
2019-05-05T12:34:58.708Z,1.90
2019-05-05T12:40:14.299Z,1.80
2019-05-05T12:45:10.770Z,2.10
2019-05-05T12:50:06.614Z,1.67
2019-05-05T12:55:02.929Z,1.60
2019-05-05T12:59:57.498Z,1.83
2019-05-05T13:04:53.513Z,1.70
2019-05-05T13:09:48.372Z,1.80
2019-05-05T13:14:43.864Z,1.63
2019-05-05T13:19:49.108Z,1.70
2019-05-05T13:24:48.207Z,1.50
2019-05-05T13:29:44.243Z,1.57
2019-05-05T13:34:39.054Z,1.53
2019-05-05T13:39:34.091Z,1.30
2019-05-05T13:44:46.592Z,1.47
2019-05-05T13:49:43.662Z,1.20
2019-05-05T13:54:38.378Z,1.30
2019-05-05T13:59:33.938Z,1.33
2019-05-05T14:04:28.914Z,1.30
2019-05-05T14:09:23.492Z,1.43
2019-05-05T14:14:18.107Z,1.50
2019-05-05T14:19:14.601Z,1.53
2019-05-05T14:24:11.889Z,1.33
2019-05-05T14:29:08.102Z,1.20
2019-05-05T14:34:04.575Z,1.20
2019-05-05T14:39:00.588Z,1.40
2019-05-05T14:43:56.550Z,1.07
2019-05-05T14:48:53.403Z,1.00
2019-05-05T14:53:47.778Z,1.00
2019-05-05T14:58:43.825Z,1.20
2019-05-05T15:03:38.516Z,1.20
2019-05-05T15:08:35.668Z,1.00
2019-05-05T15:13:30.262Z,0.90
2019-05-05T15:18:24.836Z,0.90
2019-05-05T15:23:19.472Z,1.00
2019-05-05T15:28:14.070Z,1.30
2019-05-05T15:33:08.650Z,1.20
2019-05-05T15:38:04.464Z,1.30
2019-05-05T15:42:59.389Z,1.37
2019-05-05T15:47:54.180Z,1.60
2019-05-05T15:52:48.712Z,1.27
2019-05-05T15:57:44.318Z,1.43
2019-05-05T16:02:39.238Z,1.13
2019-05-05T16:07:33.829Z,1.43
2019-05-05T16:12:34.050Z,1.57
2019-05-05T16:17:26.387Z,1.33
2019-05-05T16:22:23.270Z,1.50
2019-05-05T16:27:22.096Z,1.70
2019-05-05T16:32:21.644Z,1.30
2019-05-05T16:37:11.564Z,1.20
2019-05-05T16:42:06.210Z,1.13
2019-05-05T16:47:00.809Z,1.40
2019-05-05T16:52:00.910Z,1.20
2019-05-05T16:56:55.778Z,1.20
2019-05-05T17:01:50.372Z,1.47
2019-05-05T17:06:45.911Z,1.50
2019-05-05T17:11:43.933Z,1.20
2019-05-05T17:16:56.574Z,1.10
2019-05-05T17:21:50.918Z,1.40
2019-05-05T17:26:45.608Z,1.30
2019-05-05T17:31:40.187Z,1.30
2019-05-05T17:36:34.780Z,1.40
2019-05-05T17:41:44.509Z,1.17
2019-05-05T17:46:58.821Z,1.27
2019-05-05T17:52:14.312Z,1.60
2019-05-05T17:57:09.027Z,1.80
2019-05-05T18:02:04.715Z,1.70
2019-05-05T18:07:01.357Z,1.90
2019-05-05T18:11:55.725Z,1.60
2019-05-05T18:16:50.353Z,1.50
2019-05-05T18:21:45.009Z,1.60
2019-05-05T18:26:39.579Z,1.40
2019-05-05T18:31:34.462Z,1.70
2019-05-05T18:36:29.060Z,1.53
2019-05-05T18:41:41.387Z,1.80
2019-05-05T18:46:35.981Z,1.60
2019-05-05T18:51:30.563Z,1.57
2019-05-05T18:56:25.197Z,2.37
2019-05-05T19:01:25.298Z,3.83
2019-05-05T19:06:19.638Z,2.13
2019-05-05T19:11:14.244Z,2.30
2019-05-05T19:16:08.964Z,2.10
2019-05-05T19:21:05.213Z,2.30
2019-05-05T19:25:59.782Z,2.53
2019-05-05T19:30:54.951Z,2.80
2019-05-05T19:35:49.849Z,2.70
2019-05-05T19:40:44.529Z,2.90
2019-05-05T19:45:39.099Z,2.90
2019-05-05T19:50:35.344Z,3.63
2019-05-05T19:55:29.912Z,2.80
2019-05-05T20:00:26.302Z,3.43
2019-05-05T20:05:21.008Z,3.10
2019-05-05T20:10:15.863Z,3.30
2019-05-05T20:15:14.763Z,2.90
2019-05-05T20:20:10.362Z,3.17
2019-05-05T20:25:08.706Z,3.80
2019-05-05T20:30:07.011Z,4.23
2019-05-05T20:35:04.129Z,4.07
2019-05-05T20:40:01.160Z,2.40
2019-05-05T20:44:55.752Z,2.30
2019-05-05T20:49:50.337Z,2.10
2019-05-05T20:54:44.928Z,2.07
2019-05-05T20:59:39.542Z,2.10
2019-05-05T21:04:34.626Z,2.57
2019-05-05T21:09:29.501Z,2.27
2019-05-05T21:14:32.012Z,2.10
2019-05-05T21:19:20.387Z,2.10
2019-05-05T21:24:14.983Z,2.80
2019-05-05T21:29:09.557Z,2.30
2019-05-05T21:34:04.241Z,1.90
2019-05-05T21:38:58.853Z,2.07
2019-05-05T21:43:54.090Z,2.10
2019-05-05T21:48:48.811Z,2.20
2019-05-05T21:53:45.039Z,2.27
2019-05-05T21:58:44.162Z,2.00
2019-05-05T22:03:39.511Z,1.90
2019-05-05T22:08:35.208Z,1.77
2019-05-05T22:13:29.920Z,1.70
2019-05-05T22:18:24.530Z,1.73
2019-05-05T22:23:19.126Z,1.70
2019-05-05T22:28:13.703Z,1.90
2019-05-05T22:33:08.426Z,1.80
2019-05-05T22:38:05.853Z,1.67
2019-05-05T22:42:59.351Z,1.73
2019-05-05T22:47:54.394Z,2.00
2019-05-05T22:52:49.003Z,2.03
2019-05-05T22:57:45.209Z,2.10
2019-05-05T23:02:44.716Z,1.67
2019-05-05T23:07:39.287Z,1.87
2019-05-05T23:12:35.098Z,2.00
2019-05-05T23:17:37.575Z,1.60
2019-05-05T23:22:49.663Z,2.10
2019-05-05T23:27:48.207Z,1.90
2019-05-05T23:32:43.925Z,1.70
2019-05-05T23:37:38.883Z,1.80
2019-05-05T23:42:33.854Z,1.67
2019-05-05T23:47:28.516Z,1.73
2019-05-05T23:52:23.977Z,1.70
2019-05-05T23:57:18.928Z,1.60
